sensor_id;sensor_type;location;lat;lon;timestamp;temperature;humidity
32201;DHT22;18701;45.588;5.288;2024-02-14T00:00:09;9.30;99.90
32201;DHT22;18701;45.588;5.288;2024-02-14T00:02:37;9.20;99.90
32201;DHT22;18701;45.588;5.288;2024-02-14T00:05:03;9.20;99.90
32201;DHT22;18701;45.588;5.288;2024-02-14T00:07:29;9.40;99.90
32201;DHT22;18701;45.588;5.288;2024-02-14T00:09:55;9.20;99.90
32201;DHT22;18701;45.588;5.288;2024-02-14T00:12:21;9.20;99.90
32201;DHT22;18701;45.588;5.288;2024-02-14T00:14:46;9.20;99.90
32201;DHT22;18701;45.588;5.288;2024-02-14T00:17:12;9.10;99.90
32201;DHT22;18701;45.588;5.288;2024-02-14T00:19:37;9.10;99.90
32201;DHT22;18701;45.588;5.288;2024-02-14T00:22:03;8.90;99.90
32201;DHT22;18701;45.588;5.288;2024-02-14T00:24:29;8.70;99.90
32201;DHT22;18701;45.588;5.288;2024-02-14T00:26:55;8.80;99.90
32201;DHT22;18701;45.588;5.288;2024-02-14T00:29:22;9.00;99.90
32201;DHT22;18701;45.588;5.288;2024-02-14T00:31:48;8.90;99.90
32201;DHT22;18701;45.588;5.288;2024-02-14T00:34:14;8.90;99.90
32201;DHT22;18701;45.588;5.288;2024-02-14T00:36:39;9.10;99.90
32201;DHT22;18701;45.588;5.288;2024-02-14T00:39:05;8.90;99.90
32201;DHT22;18701;45.588;5.288;2024-02-14T00:41:34;8.80;99.90
32201;DHT22;18701;45.588;5.288;2024-02-14T00:44:01;8.90;99.90
32201;DHT22;18701;45.588;5.288;2024-02-14T00:46:26;9.00;99.90
32201;DHT22;18701;45.588;5.288;2024-02-14T00:48:53;9.20;99.90
32201;DHT22;18701;45.588;5.288;2024-02-14T00:51:20;9.10;99.90
32201;DHT22;18701;45.588;5.288;2024-02-14T00:53:46;9.10;99.90
32201;DHT22;18701;45.588;5.288;2024-02-14T00:56:12;9.10;99.90
32201;DHT22;18701;45.588;5.288;2024-02-14T00:58:37;9.00;99.90
32201;DHT22;18701;45.588;5.288;2024-02-14T01:01:03;9.00;99.90
32201;DHT22;18701;45.588;5.288;2024-02-14T01:03:29;9.00;99.90
32201;DHT22;18701;45.588;5.288;2024-02-14T01:05:55;9.00;99.90
32201;DHT22;18701;45.588;5.288;2024-02-14T01:08:20;9.10;99.90
32201;DHT22;18701;45.588;5.288;2024-02-14T01:10:46;9.00;99.90
32201;DHT22;18701;45.588;5.288;2024-02-14T01:13:12;8.80;99.90
32201;DHT22;18701;45.588;5.288;2024-02-14T01:15:38;8.80;99.90
32201;DHT22;18701;45.588;5.288;2024-02-14T01:18:03;8.70;99.90
32201;DHT22;18701;45.588;5.288;2024-02-14T01:20:29;8.70;99.90
32201;DHT22;18701;45.588;5.288;2024-02-14T01:22:55;8.60;99.90
32201;DHT22;18701;45.588;5.288;2024-02-14T01:25:20;8.60;99.90
32201;DHT22;18701;45.588;5.288;2024-02-14T01:27:47;8.60;99.90
32201;DHT22;18701;45.588;5.288;2024-02-14T01:30:14;8.70;99.90
32201;DHT22;18701;45.588;5.288;2024-02-14T01:32:40;8.80;99.90
32201;DHT22;18701;45.588;5.288;2024-02-14T01:35:06;8.70;99.90
32201;DHT22;18701;45.588;5.288;2024-02-14T01:37:31;8.90;99.90
32201;DHT22;18701;45.588;5.288;2024-02-14T01:39:58;9.10;99.90
32201;DHT22;18701;45.588;5.288;2024-02-14T01:42:23;9.10;99.90
32201;DHT22;18701;45.588;5.288;2024-02-14T01:44:49;9.10;99.90
32201;DHT22;18701;45.588;5.288;2024-02-14T01:47:14;8.90;99.90
32201;DHT22;18701;45.588;5.288;2024-02-14T01:49:41;9.00;99.90
32201;DHT22;18701;45.588;5.288;2024-02-14T01:52:09;9.00;99.90
32201;DHT22;18701;45.588;5.288;2024-02-14T01:54:36;9.10;99.90
32201;DHT22;18701;45.588;5.288;2024-02-14T01:57:02;9.10;99.90
32201;DHT22;18701;45.588;5.288;2024-02-14T01:59:28;9.20;99.90
32201;DHT22;18701;45.588;5.288;2024-02-14T02:01:54;9.00;99.90
32201;DHT22;18701;45.588;5.288;2024-02-14T02:04:21;9.00;99.90
32201;DHT22;18701;45.588;5.288;2024-02-14T02:06:47;8.80;99.90
32201;DHT22;18701;45.588;5.288;2024-02-14T02:09:12;8.80;99.90
32201;DHT22;18701;45.588;5.288;2024-02-14T02:11:51;8.90;99.90
32201;DHT22;18701;45.588;5.288;2024-02-14T02:14:19;8.80;99.90
32201;DHT22;18701;45.588;5.288;2024-02-14T02:16:45;8.90;99.90
32201;DHT22;18701;45.588;5.288;2024-02-14T02:19:11;8.80;99.90
32201;DHT22;18701;45.588;5.288;2024-02-14T02:21:37;8.90;99.90
32201;DHT22;18701;45.588;5.288;2024-02-14T02:24:03;8.90;99.90
32201;DHT22;18701;45.588;5.288;2024-02-14T02:26:29;8.90;99.90
32201;DHT22;18701;45.588;5.288;2024-02-14T02:28:55;8.60;99.90
32201;DHT22;18701;45.588;5.288;2024-02-14T02:31:21;8.70;99.90
32201;DHT22;18701;45.588;5.288;2024-02-14T02:33:46;8.60;99.90
32201;DHT22;18701;45.588;5.288;2024-02-14T02:36:12;8.50;99.90
32201;DHT22;18701;45.588;5.288;2024-02-14T02:38:38;8.70;99.90
32201;DHT22;18701;45.588;5.288;2024-02-14T02:41:04;8.70;99.90
32201;DHT22;18701;45.588;5.288;2024-02-14T02:43:33;8.60;99.90
32201;DHT22;18701;45.588;5.288;2024-02-14T02:45:59;8.60;99.90
32201;DHT22;18701;45.588;5.288;2024-02-14T02:48:24;8.50;99.90
32201;DHT22;18701;45.588;5.288;2024-02-14T02:50:50;8.60;99.90
32201;DHT22;18701;45.588;5.288;2024-02-14T02:53:16;8.40;99.90
32201;DHT22;18701;45.588;5.288;2024-02-14T02:55:42;8.40;99.90
32201;DHT22;18701;45.588;5.288;2024-02-14T02:58:08;8.50;99.90
32201;DHT22;18701;45.588;5.288;2024-02-14T03:00:34;8.40;99.90
32201;DHT22;18701;45.588;5.288;2024-02-14T03:03:00;8.40;99.90
32201;DHT22;18701;45.588;5.288;2024-02-14T03:05:26;8.40;99.90
32201;DHT22;18701;45.588;5.288;2024-02-14T03:07:52;8.40;99.90
32201;DHT22;18701;45.588;5.288;2024-02-14T03:10:18;8.30;99.90
32201;DHT22;18701;45.588;5.288;2024-02-14T03:12:48;8.20;99.90
32201;DHT22;18701;45.588;5.288;2024-02-14T03:15:14;8.30;99.90
32201;DHT22;18701;45.588;5.288;2024-02-14T03:17:39;8.20;99.90
32201;DHT22;18701;45.588;5.288;2024-02-14T03:20:05;8.00;99.90
32201;DHT22;18701;45.588;5.288;2024-02-14T03:22:41;8.00;99.90
32201;DHT22;18701;45.588;5.288;2024-02-14T03:25:19;7.80;99.90
32201;DHT22;18701;45.588;5.288;2024-02-14T03:27:46;7.90;99.90
32201;DHT22;18701;45.588;5.288;2024-02-14T03:30:18;7.90;99.90
32201;DHT22;18701;45.588;5.288;2024-02-14T03:32:44;7.80;99.90
32201;DHT22;18701;45.588;5.288;2024-02-14T03:35:11;7.60;99.90
32201;DHT22;18701;45.588;5.288;2024-02-14T03:37:39;7.20;99.90
32201;DHT22;18701;45.588;5.288;2024-02-14T03:40:05;7.30;99.90
32201;DHT22;18701;45.588;5.288;2024-02-14T03:42:33;7.60;99.90
32201;DHT22;18701;45.588;5.288;2024-02-14T03:44:59;7.70;99.90
32201;DHT22;18701;45.588;5.288;2024-02-14T03:47:34;7.80;99.90
32201;DHT22;18701;45.588;5.288;2024-02-14T03:50:00;7.80;99.90
32201;DHT22;18701;45.588;5.288;2024-02-14T03:52:27;7.80;99.90
32201;DHT22;18701;45.588;5.288;2024-02-14T03:54:53;7.70;99.90
32201;DHT22;18701;45.588;5.288;2024-02-14T03:57:18;7.70;99.90
32201;DHT22;18701;45.588;5.288;2024-02-14T03:59:44;7.60;99.90
32201;DHT22;18701;45.588;5.288;2024-02-14T04:02:10;7.60;99.90
32201;DHT22;18701;45.588;5.288;2024-02-14T04:04:37;7.60;99.90
32201;DHT22;18701;45.588;5.288;2024-02-14T04:07:03;7.70;99.90
32201;DHT22;18701;45.588;5.288;2024-02-14T04:09:29;7.80;99.90
32201;DHT22;18701;45.588;5.288;2024-02-14T04:11:54;7.70;99.90
32201;DHT22;18701;45.588;5.288;2024-02-14T04:14:20;7.90;99.90
32201;DHT22;18701;45.588;5.288;2024-02-14T04:16:46;7.80;99.90
32201;DHT22;18701;45.588;5.288;2024-02-14T04:19:12;7.90;99.90
32201;DHT22;18701;45.588;5.288;2024-02-14T04:21:38;7.80;99.90
32201;DHT22;18701;45.588;5.288;2024-02-14T04:24:04;7.80;99.90
32201;DHT22;18701;45.588;5.288;2024-02-14T04:26:30;7.90;99.90
32201;DHT22;18701;45.588;5.288;2024-02-14T04:28:55;7.70;99.90
32201;DHT22;18701;45.588;5.288;2024-02-14T04:31:21;7.70;99.90
32201;DHT22;18701;45.588;5.288;2024-02-14T04:33:47;7.70;99.90
32201;DHT22;18701;45.588;5.288;2024-02-14T04:36:20;7.70;99.90
32201;DHT22;18701;45.588;5.288;2024-02-14T04:38:47;7.60;99.90
32201;DHT22;18701;45.588;5.288;2024-02-14T04:41:13;7.60;99.90
32201;DHT22;18701;45.588;5.288;2024-02-14T04:43:40;7.50;99.90
32201;DHT22;18701;45.588;5.288;2024-02-14T04:46:05;7.40;99.90
32201;DHT22;18701;45.588;5.288;2024-02-14T04:48:35;7.40;99.90
32201;DHT22;18701;45.588;5.288;2024-02-14T04:51:02;7.50;99.90
32201;DHT22;18701;45.588;5.288;2024-02-14T04:53:28;7.50;99.90
32201;DHT22;18701;45.588;5.288;2024-02-14T04:55:54;7.50;99.90
32201;DHT22;18701;45.588;5.288;2024-02-14T04:58:20;7.40;99.90
32201;DHT22;18701;45.588;5.288;2024-02-14T05:00:46;7.30;99.90
32201;DHT22;18701;45.588;5.288;2024-02-14T05:03:12;7.50;99.90
32201;DHT22;18701;45.588;5.288;2024-02-14T05:05:38;7.50;99.90
32201;DHT22;18701;45.588;5.288;2024-02-14T05:08:04;7.50;99.90
32201;DHT22;18701;45.588;5.288;2024-02-14T05:10:32;7.60;99.90
32201;DHT22;18701;45.588;5.288;2024-02-14T05:12:58;7.70;99.90
32201;DHT22;18701;45.588;5.288;2024-02-14T05:15:23;7.70;99.90
32201;DHT22;18701;45.588;5.288;2024-02-14T05:17:49;7.70;99.90
32201;DHT22;18701;45.588;5.288;2024-02-14T05:20:15;7.60;99.90
32201;DHT22;18701;45.588;5.288;2024-02-14T05:22:41;7.60;99.90
32201;DHT22;18701;45.588;5.288;2024-02-14T05:25:07;7.50;99.90
32201;DHT22;18701;45.588;5.288;2024-02-14T05:27:34;7.60;99.90
32201;DHT22;18701;45.588;5.288;2024-02-14T05:30:01;7.60;99.90
32201;DHT22;18701;45.588;5.288;2024-02-14T05:32:26;7.40;99.90
32201;DHT22;18701;45.588;5.288;2024-02-14T05:34:52;7.40;99.90
32201;DHT22;18701;45.588;5.288;2024-02-14T05:37:18;7.40;99.90
32201;DHT22;18701;45.588;5.288;2024-02-14T05:39:43;7.30;99.90
32201;DHT22;18701;45.588;5.288;2024-02-14T05:42:09;7.40;99.90
32201;DHT22;18701;45.588;5.288;2024-02-14T05:44:34;7.20;99.90
32201;DHT22;18701;45.588;5.288;2024-02-14T05:47:00;7.30;99.90
32201;DHT22;18701;45.588;5.288;2024-02-14T05:49:26;7.30;99.90
32201;DHT22;18701;45.588;5.288;2024-02-14T05:51:51;7.10;99.90
32201;DHT22;18701;45.588;5.288;2024-02-14T05:54:19;7.20;99.90
32201;DHT22;18701;45.588;5.288;2024-02-14T05:56:45;7.20;99.90
32201;DHT22;18701;45.588;5.288;2024-02-14T05:59:11;7.20;99.90
32201;DHT22;18701;45.588;5.288;2024-02-14T06:01:36;7.00;99.90
32201;DHT22;18701;45.588;5.288;2024-02-14T06:04:04;7.10;99.90
32201;DHT22;18701;45.588;5.288;2024-02-14T06:06:29;6.90;99.90
32201;DHT22;18701;45.588;5.288;2024-02-14T06:08:55;6.90;99.90
32201;DHT22;18701;45.588;5.288;2024-02-14T06:11:22;7.00;99.90
32201;DHT22;18701;45.588;5.288;2024-02-14T06:13:48;7.00;99.90
32201;DHT22;18701;45.588;5.288;2024-02-14T06:16:14;6.90;99.90
32201;DHT22;18701;45.588;5.288;2024-02-14T06:18:39;6.90;99.90
32201;DHT22;18701;45.588;5.288;2024-02-14T06:21:06;6.60;99.90
32201;DHT22;18701;45.588;5.288;2024-02-14T06:23:31;6.70;99.90
32201;DHT22;18701;45.588;5.288;2024-02-14T06:25:58;6.70;99.90
32201;DHT22;18701;45.588;5.288;2024-02-14T06:28:23;6.60;99.90
32201;DHT22;18701;45.588;5.288;2024-02-14T06:30:49;6.70;99.90
32201;DHT22;18701;45.588;5.288;2024-02-14T06:33:15;6.60;99.90
32201;DHT22;18701;45.588;5.288;2024-02-14T06:35:41;6.60;99.90
32201;DHT22;18701;45.588;5.288;2024-02-14T06:38:06;6.60;99.90
32201;DHT22;18701;45.588;5.288;2024-02-14T06:40:32;6.60;99.90
32201;DHT22;18701;45.588;5.288;2024-02-14T06:42:58;6.60;99.90
32201;DHT22;18701;45.588;5.288;2024-02-14T06:45:25;6.40;99.90
32201;DHT22;18701;45.588;5.288;2024-02-14T06:47:51;6.40;99.90
32201;DHT22;18701;45.588;5.288;2024-02-14T06:50:17;6.40;99.90
32201;DHT22;18701;45.588;5.288;2024-02-14T06:52:42;6.30;99.90
32201;DHT22;18701;45.588;5.288;2024-02-14T06:55:08;6.50;99.90
32201;DHT22;18701;45.588;5.288;2024-02-14T06:57:33;6.40;99.90
32201;DHT22;18701;45.588;5.288;2024-02-14T06:59:59;6.40;99.90
32201;DHT22;18701;45.588;5.288;2024-02-14T07:02:25;6.60;99.90
32201;DHT22;18701;45.588;5.288;2024-02-14T07:04:53;6.60;99.90
32201;DHT22;18701;45.588;5.288;2024-02-14T07:07:19;6.80;99.90
32201;DHT22;18701;45.588;5.288;2024-02-14T07:09:45;6.80;99.90
32201;DHT22;18701;45.588;5.288;2024-02-14T07:12:11;6.70;99.90
32201;DHT22;18701;45.588;5.288;2024-02-14T07:14:36;6.70;99.90
32201;DHT22;18701;45.588;5.288;2024-02-14T07:17:02;6.70;99.90
32201;DHT22;18701;45.588;5.288;2024-02-14T07:19:28;6.70;99.90
32201;DHT22;18701;45.588;5.288;2024-02-14T07:21:54;6.80;99.90
32201;DHT22;18701;45.588;5.288;2024-02-14T07:24:19;6.80;99.90
32201;DHT22;18701;45.588;5.288;2024-02-14T07:26:45;6.80;99.90
32201;DHT22;18701;45.588;5.288;2024-02-14T07:29:11;6.70;99.90
32201;DHT22;18701;45.588;5.288;2024-02-14T07:31:37;6.70;99.90
32201;DHT22;18701;45.588;5.288;2024-02-14T07:34:02;6.60;99.90
32201;DHT22;18701;45.588;5.288;2024-02-14T07:36:31;6.80;99.90
32201;DHT22;18701;45.588;5.288;2024-02-14T07:38:57;6.80;99.90
32201;DHT22;18701;45.588;5.288;2024-02-14T07:41:23;7.00;99.90
32201;DHT22;18701;45.588;5.288;2024-02-14T07:43:49;6.90;99.90
32201;DHT22;18701;45.588;5.288;2024-02-14T07:46:20;7.00;99.90
32201;DHT22;18701;45.588;5.288;2024-02-14T07:48:48;6.90;99.90
32201;DHT22;18701;45.588;5.288;2024-02-14T07:51:14;6.80;99.90
32201;DHT22;18701;45.588;5.288;2024-02-14T07:53:40;6.90;99.90
32201;DHT22;18701;45.588;5.288;2024-02-14T07:56:05;7.00;99.90
32201;DHT22;18701;45.588;5.288;2024-02-14T07:58:31;7.30;99.90
32201;DHT22;18701;45.588;5.288;2024-02-14T08:00:56;7.40;99.90
32201;DHT22;18701;45.588;5.288;2024-02-14T08:03:22;7.40;99.90
32201;DHT22;18701;45.588;5.288;2024-02-14T08:05:48;7.60;99.90
32201;DHT22;18701;45.588;5.288;2024-02-14T08:08:14;7.60;99.90
32201;DHT22;18701;45.588;5.288;2024-02-14T08:10:39;7.80;99.90
32201;DHT22;18701;45.588;5.288;2024-02-14T08:13:05;7.90;99.90
32201;DHT22;18701;45.588;5.288;2024-02-14T08:15:30;8.00;99.90
32201;DHT22;18701;45.588;5.288;2024-02-14T08:17:56;8.00;99.90
32201;DHT22;18701;45.588;5.288;2024-02-14T08:20:22;8.10;99.90
32201;DHT22;18701;45.588;5.288;2024-02-14T08:22:49;8.00;99.90
32201;DHT22;18701;45.588;5.288;2024-02-14T08:25:15;8.00;99.90
32201;DHT22;18701;45.588;5.288;2024-02-14T08:27:41;8.10;99.90
32201;DHT22;18701;45.588;5.288;2024-02-14T08:30:07;8.30;99.90
32201;DHT22;18701;45.588;5.288;2024-02-14T08:32:34;8.40;99.90
32201;DHT22;18701;45.588;5.288;2024-02-14T08:35:00;8.50;99.90
32201;DHT22;18701;45.588;5.288;2024-02-14T08:37:26;8.60;99.90
32201;DHT22;18701;45.588;5.288;2024-02-14T08:39:52;8.60;99.90
32201;DHT22;18701;45.588;5.288;2024-02-14T08:42:18;8.80;99.90
32201;DHT22;18701;45.588;5.288;2024-02-14T08:44:44;8.90;99.90
32201;DHT22;18701;45.588;5.288;2024-02-14T08:47:09;9.10;99.90
32201;DHT22;18701;45.588;5.288;2024-02-14T08:49:35;9.20;99.90
32201;DHT22;18701;45.588;5.288;2024-02-14T08:52:01;9.40;99.90
32201;DHT22;18701;45.588;5.288;2024-02-14T08:54:27;9.40;99.90
32201;DHT22;18701;45.588;5.288;2024-02-14T08:56:53;9.50;99.90
32201;DHT22;18701;45.588;5.288;2024-02-14T08:59:21;9.50;99.90
32201;DHT22;18701;45.588;5.288;2024-02-14T09:01:47;9.80;99.90
32201;DHT22;18701;45.588;5.288;2024-02-14T09:04:13;10.00;99.90
32201;DHT22;18701;45.588;5.288;2024-02-14T09:06:39;10.10;99.90
32201;DHT22;18701;45.588;5.288;2024-02-14T09:09:06;10.20;99.90
32201;DHT22;18701;45.588;5.288;2024-02-14T09:11:35;10.20;99.90
32201;DHT22;18701;45.588;5.288;2024-02-14T09:14:01;10.10;99.90
32201;DHT22;18701;45.588;5.288;2024-02-14T09:16:32;10.20;99.90
32201;DHT22;18701;45.588;5.288;2024-02-14T09:18:59;10.40;99.90
32201;DHT22;18701;45.588;5.288;2024-02-14T09:21:25;10.30;99.90
32201;DHT22;18701;45.588;5.288;2024-02-14T09:23:50;10.40;99.90
32201;DHT22;18701;45.588;5.288;2024-02-14T09:26:17;10.40;99.90
32201;DHT22;18701;45.588;5.288;2024-02-14T09:28:43;10.50;99.90
32201;DHT22;18701;45.588;5.288;2024-02-14T09:31:09;10.70;99.90
32201;DHT22;18701;45.588;5.288;2024-02-14T09:33:38;10.70;99.90
32201;DHT22;18701;45.588;5.288;2024-02-14T09:36:04;10.60;99.90
32201;DHT22;18701;45.588;5.288;2024-02-14T09:38:30;10.60;99.90
32201;DHT22;18701;45.588;5.288;2024-02-14T09:41:06;10.70;99.90
32201;DHT22;18701;45.588;5.288;2024-02-14T09:43:43;10.60;99.90
32201;DHT22;18701;45.588;5.288;2024-02-14T09:46:12;10.70;99.90
32201;DHT22;18701;45.588;5.288;2024-02-14T09:48:38;11.00;99.90
32201;DHT22;18701;45.588;5.288;2024-02-14T09:51:05;10.80;99.90
32201;DHT22;18701;45.588;5.288;2024-02-14T09:53:32;10.70;99.90
32201;DHT22;18701;45.588;5.288;2024-02-14T09:55:59;10.90;99.90
32201;DHT22;18701;45.588;5.288;2024-02-14T09:58:26;11.00;99.90
32201;DHT22;18701;45.588;5.288;2024-02-14T10:00:53;11.20;99.90
32201;DHT22;18701;45.588;5.288;2024-02-14T10:03:19;11.50;99.90
32201;DHT22;18701;45.588;5.288;2024-02-14T10:05:44;11.70;99.90
32201;DHT22;18701;45.588;5.288;2024-02-14T10:08:11;11.90;99.90
32201;DHT22;18701;45.588;5.288;2024-02-14T10:10:37;11.90;99.90
32201;DHT22;18701;45.588;5.288;2024-02-14T10:13:06;12.00;99.90
32201;DHT22;18701;45.588;5.288;2024-02-14T10:15:33;11.90;99.90
32201;DHT22;18701;45.588;5.288;2024-02-14T10:17:59;11.90;99.90
32201;DHT22;18701;45.588;5.288;2024-02-14T10:20:26;11.80;99.90
32201;DHT22;18701;45.588;5.288;2024-02-14T10:23:03;11.80;99.90
32201;DHT22;18701;45.588;5.288;2024-02-14T10:25:29;11.90;99.90
32201;DHT22;18701;45.588;5.288;2024-02-14T10:27:56;11.80;99.90
32201;DHT22;18701;45.588;5.288;2024-02-14T10:30:22;11.90;99.90
32201;DHT22;18701;45.588;5.288;2024-02-14T10:32:48;12.20;99.90
32201;DHT22;18701;45.588;5.288;2024-02-14T10:35:15;12.30;99.90
32201;DHT22;18701;45.588;5.288;2024-02-14T10:37:41;12.30;99.90
32201;DHT22;18701;45.588;5.288;2024-02-14T10:40:08;12.40;99.90
32201;DHT22;18701;45.588;5.288;2024-02-14T10:42:36;12.60;99.90
32201;DHT22;18701;45.588;5.288;2024-02-14T10:45:03;12.70;99.90
32201;DHT22;18701;45.588;5.288;2024-02-14T10:47:34;13.00;99.90
32201;DHT22;18701;45.588;5.288;2024-02-14T10:50:05;13.50;99.90
32201;DHT22;18701;45.588;5.288;2024-02-14T10:52:32;13.40;99.90
32201;DHT22;18701;45.588;5.288;2024-02-14T10:55:01;13.50;99.90
32201;DHT22;18701;45.588;5.288;2024-02-14T10:57:27;13.80;99.90
32201;DHT22;18701;45.588;5.288;2024-02-14T10:59:55;14.00;99.90
32201;DHT22;18701;45.588;5.288;2024-02-14T11:02:22;14.30;99.90
32201;DHT22;18701;45.588;5.288;2024-02-14T11:04:49;14.40;99.90
32201;DHT22;18701;45.588;5.288;2024-02-14T11:07:20;14.40;99.90
32201;DHT22;18701;45.588;5.288;2024-02-14T11:09:45;14.10;99.90
32201;DHT22;18701;45.588;5.288;2024-02-14T11:12:11;14.30;99.90
32201;DHT22;18701;45.588;5.288;2024-02-14T11:14:37;14.80;99.90
32201;DHT22;18701;45.588;5.288;2024-02-14T11:17:09;15.10;99.90
32201;DHT22;18701;45.588;5.288;2024-02-14T11:19:35;15.00;99.90
32201;DHT22;18701;45.588;5.288;2024-02-14T11:22:33;14.90;99.90
32201;DHT22;18701;45.588;5.288;2024-02-14T11:25:06;14.80;99.90
32201;DHT22;18701;45.588;5.288;2024-02-14T11:27:33;14.80;99.90
32201;DHT22;18701;45.588;5.288;2024-02-14T11:29:59;14.80;99.90
32201;DHT22;18701;45.588;5.288;2024-02-14T11:32:27;14.50;99.90
32201;DHT22;18701;45.588;5.288;2024-02-14T11:34:56;14.90;99.90
32201;DHT22;18701;45.588;5.288;2024-02-14T11:37:29;15.00;99.90
32201;DHT22;18701;45.588;5.288;2024-02-14T11:39:55;15.50;99.90
32201;DHT22;18701;45.588;5.288;2024-02-14T11:42:23;16.10;99.90
32201;DHT22;18701;45.588;5.288;2024-02-14T11:44:49;16.00;99.90
32201;DHT22;18701;45.588;5.288;2024-02-14T11:47:14;17.10;99.00
32201;DHT22;18701;45.588;5.288;2024-02-14T11:49:40;16.90;98.10
32201;DHT22;18701;45.588;5.288;2024-02-14T11:52:09;20.00;95.50
32201;DHT22;18701;45.588;5.288;2024-02-14T11:54:36;20.10;93.30
32201;DHT22;18701;45.588;5.288;2024-02-14T11:57:03;24.00;90.10
32201;DHT22;18701;45.588;5.288;2024-02-14T11:59:29;24.50;78.80
32201;DHT22;18701;45.588;5.288;2024-02-14T12:01:54;23.60;79.20
32201;DHT22;18701;45.588;5.288;2024-02-14T12:04:23;21.90;81.40
32201;DHT22;18701;45.588;5.288;2024-02-14T12:06:49;20.00;82.40
32201;DHT22;18701;45.588;5.288;2024-02-14T12:09:15;19.50;84.50
32201;DHT22;18701;45.588;5.288;2024-02-14T12:11:41;18.90;86.80
32201;DHT22;18701;45.588;5.288;2024-02-14T12:14:11;18.50;88.00
32201;DHT22;18701;45.588;5.288;2024-02-14T12:16:38;17.90;87.20
32201;DHT22;18701;45.588;5.288;2024-02-14T12:19:10;17.40;90.10
32201;DHT22;18701;45.588;5.288;2024-02-14T12:21:39;16.90;90.40
32201;DHT22;18701;45.588;5.288;2024-02-14T12:24:09;16.80;90.60
32201;DHT22;18701;45.588;5.288;2024-02-14T12:26:36;17.20;90.60
32201;DHT22;18701;45.588;5.288;2024-02-14T12:29:03;20.50;86.10
32201;DHT22;18701;45.588;5.288;2024-02-14T12:31:29;20.20;82.30
32201;DHT22;18701;45.588;5.288;2024-02-14T12:33:57;22.80;79.00
32201;DHT22;18701;45.588;5.288;2024-02-14T12:36:25;20.80;78.50
32201;DHT22;18701;45.588;5.288;2024-02-14T12:38:51;19.40;79.10
32201;DHT22;18701;45.588;5.288;2024-02-14T12:41:18;18.90;82.20
32201;DHT22;18701;45.588;5.288;2024-02-14T12:43:44;18.40;83.70
32201;DHT22;18701;45.588;5.288;2024-02-14T12:46:10;18.00;85.60
32201;DHT22;18701;45.588;5.288;2024-02-14T12:48:35;19.70;83.70
32201;DHT22;18701;45.588;5.288;2024-02-14T12:51:01;19.40;83.60
32201;DHT22;18701;45.588;5.288;2024-02-14T12:53:27;19.80;82.80
32201;DHT22;18701;45.588;5.288;2024-02-14T12:55:52;21.00;82.80
32201;DHT22;18701;45.588;5.288;2024-02-14T12:58:18;21.10;82.30
32201;DHT22;18701;45.588;5.288;2024-02-14T13:00:44;20.50;82.50
32201;DHT22;18701;45.588;5.288;2024-02-14T13:03:11;19.30;83.90
32201;DHT22;18701;45.588;5.288;2024-02-14T13:05:37;18.80;85.30
32201;DHT22;18701;45.588;5.288;2024-02-14T13:08:03;18.00;86.90
32201;DHT22;18701;45.588;5.288;2024-02-14T13:10:28;17.80;89.60
32201;DHT22;18701;45.588;5.288;2024-02-14T13:12:57;18.20;89.00
32201;DHT22;18701;45.588;5.288;2024-02-14T13:15:22;17.60;90.10
32201;DHT22;18701;45.588;5.288;2024-02-14T13:17:48;17.60;90.80
32201;DHT22;18701;45.588;5.288;2024-02-14T13:20:14;17.80;91.10
32201;DHT22;18701;45.588;5.288;2024-02-14T13:22:41;17.60;91.30
32201;DHT22;18701;45.588;5.288;2024-02-14T13:25:08;17.50;91.60
32201;DHT22;18701;45.588;5.288;2024-02-14T13:27:34;17.50;92.20
32201;DHT22;18701;45.588;5.288;2024-02-14T13:30:01;17.40;92.10
32201;DHT22;18701;45.588;5.288;2024-02-14T13:32:27;17.60;92.90
32201;DHT22;18701;45.588;5.288;2024-02-14T13:34:52;17.50;93.70
32201;DHT22;18701;45.588;5.288;2024-02-14T13:37:18;17.70;94.30
32201;DHT22;18701;45.588;5.288;2024-02-14T13:39:44;17.80;94.90
32201;DHT22;18701;45.588;5.288;2024-02-14T13:42:10;17.70;95.40
32201;DHT22;18701;45.588;5.288;2024-02-14T13:44:36;17.60;95.50
32201;DHT22;18701;45.588;5.288;2024-02-14T13:47:02;17.40;96.20
32201;DHT22;18701;45.588;5.288;2024-02-14T13:49:28;17.40;96.40
32201;DHT22;18701;45.588;5.288;2024-02-14T13:51:54;17.30;96.20
32201;DHT22;18701;45.588;5.288;2024-02-14T13:54:20;17.30;96.00
32201;DHT22;18701;45.588;5.288;2024-02-14T13:56:45;17.10;95.80
32201;DHT22;18701;45.588;5.288;2024-02-14T13:59:14;17.20;95.80
32201;DHT22;18701;45.588;5.288;2024-02-14T14:01:40;17.30;96.00
32201;DHT22;18701;45.588;5.288;2024-02-14T14:04:06;17.10;95.70
32201;DHT22;18701;45.588;5.288;2024-02-14T14:06:32;17.80;95.10
32201;DHT22;18701;45.588;5.288;2024-02-14T14:08:57;18.10;94.40
32201;DHT22;18701;45.588;5.288;2024-02-14T14:11:24;18.50;94.70
32201;DHT22;18701;45.588;5.288;2024-02-14T14:13:50;19.50;93.70
32201;DHT22;18701;45.588;5.288;2024-02-14T14:16:15;20.70;92.60
32201;DHT22;18701;45.588;5.288;2024-02-14T14:18:42;23.00;90.00
32201;DHT22;18701;45.588;5.288;2024-02-14T14:21:08;25.10;85.30
32201;DHT22;18701;45.588;5.288;2024-02-14T14:23:34;26.70;81.00
32201;DHT22;18701;45.588;5.288;2024-02-14T14:26:01;26.30;79.00
32201;DHT22;18701;45.588;5.288;2024-02-14T14:28:27;26.40;77.80
32201;DHT22;18701;45.588;5.288;2024-02-14T14:30:53;25.50;77.60
32201;DHT22;18701;45.588;5.288;2024-02-14T14:33:22;25.30;78.00
32201;DHT22;18701;45.588;5.288;2024-02-14T14:35:48;25.90;77.40
32201;DHT22;18701;45.588;5.288;2024-02-14T14:38:19;25.40;78.60
32201;DHT22;18701;45.588;5.288;2024-02-14T14:40:45;25.50;78.50
32201;DHT22;18701;45.588;5.288;2024-02-14T14:43:14;24.70;78.30
32201;DHT22;18701;45.588;5.288;2024-02-14T14:45:40;24.60;78.50
32201;DHT22;18701;45.588;5.288;2024-02-14T14:48:07;24.70;78.50
32201;DHT22;18701;45.588;5.288;2024-02-14T14:50:37;24.50;78.10
32201;DHT22;18701;45.588;5.288;2024-02-14T14:53:03;24.30;78.80
32201;DHT22;18701;45.588;5.288;2024-02-14T14:55:54;25.00;78.00
32201;DHT22;18701;45.588;5.288;2024-02-14T14:58:23;25.20;77.60
32201;DHT22;18701;45.588;5.288;2024-02-14T15:00:58;24.50;78.50
32201;DHT22;18701;45.588;5.288;2024-02-14T15:03:25;24.00;79.40
32201;DHT22;18701;45.588;5.288;2024-02-14T15:05:51;25.20;78.70
32201;DHT22;18701;45.588;5.288;2024-02-14T15:08:17;24.70;77.50
32201;DHT22;18701;45.588;5.288;2024-02-14T15:10:48;24.40;78.60
32201;DHT22;18701;45.588;5.288;2024-02-14T15:13:17;24.70;78.40
32201;DHT22;18701;45.588;5.288;2024-02-14T15:15:43;24.90;78.50
32201;DHT22;18701;45.588;5.288;2024-02-14T15:18:08;25.20;78.30
32201;DHT22;18701;45.588;5.288;2024-02-14T15:20:34;25.10;77.00
32201;DHT22;18701;45.588;5.288;2024-02-14T15:23:02;25.50;77.10
32201;DHT22;18701;45.588;5.288;2024-02-14T15:25:28;25.80;76.60
32201;DHT22;18701;45.588;5.288;2024-02-14T15:27:54;26.60;75.80
32201;DHT22;18701;45.588;5.288;2024-02-14T15:30:26;27.70;75.10
32201;DHT22;18701;45.588;5.288;2024-02-14T15:33:11;27.80;73.90
32201;DHT22;18701;45.588;5.288;2024-02-14T15:35:53;28.40;72.50